createdAt,value
2023-04-19T00:00:12.748Z,16.23
2023-04-19T00:02:43.312Z,16.02
2023-04-19T00:05:14.180Z,16.58
2023-04-19T00:07:42.561Z,16.10
2023-04-19T00:10:11.921Z,16.00
2023-04-19T00:12:40.360Z,15.45
2023-04-19T00:15:09.732Z,14.93
2023-04-19T00:17:38.103Z,15.43
2023-04-19T00:20:08.788Z,14.60
2023-04-19T00:22:38.130Z,16.08
2023-04-19T00:25:07.098Z,15.40
2023-04-19T00:27:36.342Z,15.43
2023-04-19T00:30:05.548Z,16.17
2023-04-19T00:32:34.641Z,15.15
2023-04-19T00:35:03.801Z,16.73
2023-04-19T00:37:36.150Z,16.55
2023-04-19T00:40:07.006Z,16.02
2023-04-19T00:42:38.789Z,16.80
2023-04-19T00:45:08.928Z,16.42
2023-04-19T00:47:38.832Z,15.65
2023-04-19T00:50:09.636Z,16.15
2023-04-19T00:52:39.587Z,16.25
2023-04-19T00:55:09.787Z,17.10
2023-04-19T00:57:38.971Z,16.13
2023-04-19T01:00:10.238Z,16.45
2023-04-19T01:02:38.700Z,16.80
2023-04-19T01:05:09.184Z,16.80
2023-04-19T01:07:39.036Z,15.52
2023-04-19T01:10:08.703Z,17.05
2023-04-19T01:12:37.225Z,17.00
2023-04-19T01:15:07.000Z,16.85
2023-04-19T01:17:36.542Z,16.38
2023-04-19T01:20:08.139Z,16.77
2023-04-19T01:22:39.128Z,16.63
2023-04-19T01:25:08.754Z,18.13
2023-04-19T01:27:38.852Z,17.23
2023-04-19T01:30:08.491Z,16.88
2023-04-19T01:32:38.621Z,17.17
2023-04-19T01:35:07.806Z,18.15
2023-04-19T01:37:38.639Z,16.67
2023-04-19T01:40:08.349Z,17.70
2023-04-19T01:42:38.758Z,18.40
2023-04-19T01:45:08.070Z,17.73
2023-04-19T01:47:37.756Z,17.70
2023-04-19T01:50:07.385Z,17.38
2023-04-19T01:52:39.068Z,17.38
2023-04-19T01:55:08.974Z,17.65
2023-04-19T01:57:37.332Z,16.92
2023-04-19T02:00:07.720Z,16.63
2023-04-19T02:02:43.147Z,17.83
2023-04-19T02:05:12.451Z,17.90
2023-04-19T02:07:43.128Z,19.60
2023-04-19T02:10:13.385Z,16.67
2023-04-19T02:12:42.950Z,17.60
2023-04-19T02:15:11.853Z,18.45
2023-04-19T02:17:41.095Z,18.40
2023-04-19T02:20:10.866Z,16.75
2023-04-19T02:22:39.266Z,18.35
2023-04-19T02:25:09.864Z,19.05
2023-04-19T02:27:38.343Z,19.40
2023-04-19T02:30:08.784Z,17.63
2023-04-19T02:32:37.302Z,17.25
2023-04-19T02:35:09.321Z,18.73
2023-04-19T02:37:37.732Z,19.52
2023-04-19T02:40:10.823Z,20.33
2023-04-19T02:42:39.256Z,18.25
2023-04-19T02:45:09.947Z,18.85
2023-04-19T02:47:38.763Z,17.23
2023-04-19T02:50:08.449Z,18.23
2023-04-19T02:52:44.314Z,17.90
2023-04-19T02:55:14.129Z,18.20
2023-04-19T02:57:43.447Z,17.83
2023-04-19T03:00:14.008Z,19.13
2023-04-19T03:02:52.233Z,17.50
2023-04-19T03:05:21.048Z,18.30
2023-04-19T03:07:49.968Z,18.40
2023-04-19T03:10:19.796Z,18.63
2023-04-19T03:12:49.478Z,17.60
2023-04-19T03:15:17.883Z,18.58
2023-04-19T03:17:46.897Z,18.20
2023-04-19T03:20:17.161Z,19.63
2023-04-19T03:22:46.482Z,18.13
2023-04-19T03:25:15.987Z,18.15
2023-04-19T03:27:52.104Z,18.15
2023-04-19T03:30:28.787Z,19.40
2023-04-19T03:33:00.493Z,19.55
2023-04-19T03:35:30.899Z,19.33
2023-04-19T03:38:07.747Z,18.75
2023-04-19T03:40:39.561Z,19.15
2023-04-19T03:43:11.879Z,18.88
2023-04-19T03:45:41.596Z,18.52
2023-04-19T03:48:10.133Z,18.05
2023-04-19T03:50:39.063Z,18.88
2023-04-19T03:53:08.028Z,19.38
2023-04-19T03:55:36.583Z,17.40
2023-04-19T03:58:06.126Z,19.52
2023-04-19T04:00:43.615Z,18.10
2023-04-19T04:03:15.197Z,17.98
2023-04-19T04:05:43.748Z,20.85
2023-04-19T04:08:14.261Z,19.98
2023-04-19T04:10:43.101Z,18.77
2023-04-19T04:13:12.971Z,18.73
2023-04-19T04:15:50.609Z,19.05
2023-04-19T04:18:20.057Z,19.15
2023-04-19T04:20:49.230Z,19.25
2023-04-19T04:23:18.052Z,19.83
2023-04-19T04:25:59.549Z,19.20
2023-04-19T04:28:33.454Z,18.15
2023-04-19T04:31:04.452Z,19.15
2023-04-19T04:33:34.932Z,19.58
2023-04-19T04:36:06.816Z,20.30
2023-04-19T04:38:37.914Z,18.98
2023-04-19T04:41:07.557Z,20.92
2023-04-19T04:43:36.396Z,21.52
2023-04-19T04:46:06.433Z,19.35
2023-04-19T04:48:40.314Z,20.50
2023-04-19T04:51:08.726Z,21.08
2023-04-19T04:53:38.230Z,18.23
2023-04-19T04:56:07.979Z,18.92
2023-04-19T04:58:37.176Z,19.50
2023-04-19T05:01:10.762Z,20.60
2023-04-19T05:03:41.749Z,19.50
2023-04-19T05:06:15.347Z,19.75
2023-04-19T05:08:44.312Z,21.05
2023-04-19T05:11:25.420Z,21.08
2023-04-19T05:13:56.000Z,22.02
2023-04-19T05:16:26.862Z,21.10
2023-04-19T05:18:55.435Z,22.38
2023-04-19T05:21:26.869Z,22.27
2023-04-19T05:23:56.398Z,20.77
2023-04-19T05:26:25.005Z,21.30
2023-04-19T05:28:56.522Z,20.73
2023-04-19T05:31:39.896Z,20.92
2023-04-19T05:34:19.207Z,22.65
2023-04-19T05:36:50.158Z,23.00
2023-04-19T05:39:19.041Z,21.88
2023-04-19T05:41:47.373Z,22.42
2023-04-19T05:44:16.954Z,22.08
2023-04-19T05:46:47.441Z,22.30
2023-04-19T05:49:20.804Z,21.63
2023-04-19T05:52:16.806Z,20.38
2023-04-19T05:54:48.587Z,21.15
2023-04-19T05:57:17.844Z,21.75
2023-04-19T05:59:46.288Z,20.60
2023-04-19T06:02:19.877Z,22.08
2023-04-19T06:04:48.505Z,20.35
2023-04-19T06:07:31.097Z,21.00
2023-04-19T06:10:00.123Z,22.92
2023-04-19T06:12:29.141Z,21.08
2023-04-19T06:14:58.029Z,21.10
2023-04-19T06:17:28.956Z,22.42
2023-04-19T06:19:57.870Z,22.75
2023-04-19T06:22:26.726Z,21.20
2023-04-19T06:24:56.039Z,24.13
2023-04-19T06:27:24.725Z,21.92
2023-04-19T06:29:53.055Z,22.45
2023-04-19T06:32:21.925Z,22.08
2023-04-19T06:34:51.936Z,22.23
2023-04-19T06:37:21.021Z,20.80
2023-04-19T06:39:49.608Z,22.60
2023-04-19T06:42:20.287Z,22.67
2023-04-19T06:44:48.698Z,24.10
2023-04-19T06:47:17.492Z,22.35
2023-04-19T06:49:45.959Z,22.80
2023-04-19T06:52:15.840Z,22.05
2023-04-19T06:54:49.281Z,22.33
2023-04-19T06:57:18.006Z,22.15
2023-04-19T06:59:47.555Z,20.67
2023-04-19T07:02:16.070Z,21.92
2023-04-19T07:04:45.387Z,17.50
2023-04-19T07:07:15.697Z,14.20
2023-04-19T07:09:44.944Z,21.23
2023-04-19T07:12:13.308Z,22.10
2023-04-19T07:14:42.134Z,21.80
2023-04-19T07:17:10.513Z,21.95
2023-04-19T07:19:38.902Z,21.35
2023-04-19T07:22:07.735Z,22.10
2023-04-19T07:24:40.232Z,21.05
2023-04-19T07:27:08.636Z,21.70
2023-04-19T07:29:37.248Z,20.27
2023-04-19T07:32:06.414Z,20.67
2023-04-19T07:34:35.321Z,20.90
2023-04-19T07:37:03.651Z,21.77
2023-04-19T07:39:33.564Z,20.13
2023-04-19T07:42:03.278Z,21.75
2023-04-19T07:44:32.142Z,22.40
2023-04-19T07:47:01.055Z,24.15
2023-04-19T07:49:33.873Z,20.40
2023-04-19T07:52:03.456Z,20.45
2023-04-19T07:54:32.270Z,22.30
2023-04-19T07:57:01.148Z,20.50
2023-04-19T07:59:33.323Z,20.85
2023-04-19T08:02:02.734Z,19.50
2023-04-19T08:04:31.720Z,20.27
2023-04-19T08:07:00.848Z,20.20
2023-04-19T08:09:29.372Z,19.65
2023-04-19T08:11:59.027Z,20.20
2023-04-19T08:14:37.712Z,21.40
2023-04-19T08:17:25.372Z,21.05
2023-04-19T08:19:55.867Z,20.77
2023-04-19T08:22:24.690Z,21.83
2023-04-19T08:24:53.739Z,20.80
2023-04-19T08:27:23.034Z,20.00
2023-04-19T08:29:51.570Z,20.83
2023-04-19T08:32:21.334Z,19.38
2023-04-19T08:34:49.940Z,21.50
2023-04-19T08:37:18.889Z,21.52
2023-04-19T08:39:47.306Z,21.00
2023-04-19T08:42:28.752Z,21.17
2023-04-19T08:52:54.872Z,20.45
2023-04-19T08:55:27.516Z,20.85
2023-04-19T08:57:58.276Z,21.48
2023-04-19T09:00:26.650Z,21.38
2023-04-19T09:02:57.909Z,21.17
2023-04-19T09:05:27.048Z,21.15
2023-04-19T09:07:55.580Z,22.05
2023-04-19T09:10:26.428Z,20.63
2023-04-19T09:13:02.641Z,19.77
2023-04-19T09:15:39.881Z,22.23
2023-04-19T09:18:11.375Z,21.17
2023-04-19T09:20:42.122Z,21.98
2023-04-19T09:23:13.055Z,22.88
2023-04-19T09:26:05.749Z,24.42
2023-04-19T09:28:31.472Z,22.95
2023-04-19T09:31:30.306Z,20.85
2023-04-19T09:34:16.657Z,20.30
2023-04-19T09:36:45.235Z,19.67
2023-04-19T09:39:16.023Z,19.55
2023-04-19T09:42:03.065Z,19.20
2023-04-19T09:45:09.442Z,19.48
2023-04-19T09:47:25.012Z,20.77
2023-04-19T09:50:21.707Z,18.48
2023-04-19T09:52:51.899Z,19.13
2023-04-19T09:57:53.052Z,17.95
2023-04-19T10:00:23.934Z,18.75
2023-04-19T10:02:58.016Z,19.13
2023-04-19T10:05:29.042Z,18.63
2023-04-19T10:08:00.408Z,19.90
2023-04-19T10:13:19.133Z,17.02
2023-04-19T10:15:54.121Z,16.52
2023-04-19T10:18:26.393Z,16.13
2023-04-19T10:21:02.947Z,15.98
2023-04-19T10:23:33.648Z,14.73
2023-04-19T10:26:02.950Z,16.60
2023-04-19T10:28:31.833Z,14.18
2023-04-19T10:31:02.703Z,13.82
2023-04-19T10:33:35.549Z,14.15
2023-04-19T10:36:10.120Z,12.57
2023-04-19T10:38:40.461Z,12.57
2023-04-19T10:41:17.076Z,14.13
2023-04-19T10:43:48.570Z,12.95
2023-04-19T10:46:38.721Z,12.98
2023-04-19T10:49:08.321Z,12.13
2023-04-19T10:51:42.287Z,13.82
2023-04-19T10:54:29.778Z,15.93
2023-04-19T10:57:04.569Z,13.88
2023-04-19T10:59:34.847Z,13.65
2023-04-19T11:02:05.993Z,12.52
2023-04-19T11:05:03.888Z,14.10
2023-04-19T11:07:43.650Z,12.15
2023-04-19T11:10:13.070Z,11.68
2023-04-19T11:12:45.849Z,12.25
2023-04-19T11:15:15.785Z,12.98
2023-04-19T11:17:44.183Z,12.48
2023-04-19T11:20:15.307Z,12.30
2023-04-19T11:22:48.359Z,11.75
2023-04-19T11:25:19.026Z,10.73
2023-04-19T11:27:49.425Z,10.60
2023-04-19T11:30:21.436Z,11.38
2023-04-19T11:32:53.488Z,10.43
2023-04-19T11:35:23.617Z,9.68
2023-04-19T11:37:54.704Z,10.23
2023-04-19T11:40:26.383Z,10.27
2023-04-19T11:42:56.068Z,10.70
2023-04-19T11:45:31.129Z,9.93
2023-04-19T11:48:00.733Z,8.48
2023-04-19T11:50:37.774Z,7.63
2023-04-19T11:53:19.997Z,8.02
2023-04-19T11:55:51.796Z,7.32
2023-04-19T11:58:31.879Z,9.13
2023-04-19T12:01:07.098Z,8.40
2023-04-19T12:03:36.329Z,8.10
2023-04-19T12:06:09.122Z,7.75
2023-04-19T12:08:40.526Z,7.47
2023-04-19T12:11:09.171Z,8.00
2023-04-19T12:13:38.825Z,8.25
2023-04-19T12:16:08.257Z,7.90
2023-04-19T12:18:46.000Z,8.48
2023-04-19T12:21:25.692Z,7.75
2023-04-19T12:23:57.794Z,9.13
2023-04-19T12:26:28.237Z,8.05
2023-04-19T12:28:58.664Z,7.68
2023-04-19T12:31:27.322Z,7.15
2023-04-19T12:33:57.340Z,6.90
2023-04-19T12:36:26.378Z,6.88
2023-04-19T12:38:56.220Z,7.00
2023-04-19T12:41:25.551Z,6.53
2023-04-19T12:43:53.924Z,6.32
2023-04-19T12:46:24.135Z,6.35
2023-04-19T12:48:52.522Z,5.82
2023-04-19T12:51:21.369Z,6.00
2023-04-19T12:53:50.375Z,5.97
2023-04-19T12:56:21.740Z,5.80
2023-04-19T12:58:50.094Z,5.47
2023-04-19T13:01:18.904Z,6.13
2023-04-19T13:03:47.536Z,5.90
2023-04-19T13:06:17.819Z,6.22
2023-04-19T13:08:48.000Z,5.70
2023-04-19T13:11:23.627Z,6.10
2023-04-19T13:13:54.029Z,5.97
2023-04-19T13:16:23.184Z,5.55
2023-04-19T13:18:52.519Z,6.15
2023-04-19T13:21:23.407Z,5.88
2023-04-19T13:23:52.217Z,5.82
2023-04-19T13:26:20.604Z,6.50
2023-04-19T13:28:49.333Z,5.68
2023-04-19T13:31:19.706Z,6.00
2023-04-19T13:33:48.226Z,5.72
2023-04-19T13:36:17.202Z,5.63
2023-04-19T13:38:45.876Z,6.70
2023-04-19T13:41:15.315Z,5.88
2023-04-19T13:43:43.674Z,8.40
2023-04-19T13:46:13.135Z,7.63
2023-04-19T13:48:42.865Z,7.03
2023-04-19T13:51:12.145Z,7.07
2023-04-19T13:53:42.004Z,7.45
2023-04-19T13:56:10.816Z,7.18
2023-04-19T13:58:40.711Z,7.45
2023-04-19T14:01:09.163Z,8.52
2023-04-19T14:03:38.875Z,7.80
2023-04-19T14:06:08.802Z,7.80
2023-04-19T14:08:37.595Z,9.75
2023-04-19T14:11:06.209Z,8.95
2023-04-19T14:13:35.694Z,8.48
2023-04-19T14:16:04.783Z,8.68
2023-04-19T14:18:33.501Z,8.57
2023-04-19T14:21:02.334Z,8.23
2023-04-19T14:23:32.284Z,8.50
2023-04-19T14:26:01.140Z,8.70
2023-04-19T14:28:29.513Z,9.00
2023-04-19T14:30:58.649Z,8.18
2023-04-19T14:33:27.181Z,7.32
2023-04-19T14:35:57.280Z,7.10
2023-04-19T14:38:26.101Z,7.20
2023-04-19T14:40:56.294Z,7.30
2023-04-19T14:43:26.365Z,7.15
2023-04-19T14:45:55.428Z,7.55
2023-04-19T14:48:24.356Z,6.78
2023-04-19T14:50:52.681Z,6.90
2023-04-19T14:53:21.905Z,7.13
2023-04-19T14:55:50.216Z,7.00
2023-04-19T14:58:20.691Z,7.57
2023-04-19T15:00:50.802Z,6.80
2023-04-19T15:03:20.265Z,7.47
2023-04-19T15:05:49.474Z,6.85
2023-04-19T15:10:52.333Z,7.03
2023-04-19T15:13:22.077Z,7.45
2023-04-19T15:15:51.658Z,9.07
2023-04-19T15:18:20.055Z,8.18
2023-04-19T15:20:49.212Z,7.72
2023-04-19T15:23:18.025Z,7.53
2023-04-19T15:25:47.504Z,7.55
2023-04-19T15:28:15.870Z,8.10
2023-04-19T15:30:45.513Z,7.95
2023-04-19T15:33:14.847Z,7.88
2023-04-19T15:35:43.194Z,7.53
2023-04-19T15:38:12.744Z,7.20
2023-04-19T15:40:41.527Z,7.90
2023-04-19T15:43:10.173Z,9.93
2023-04-19T15:45:38.866Z,9.65
2023-04-19T15:48:09.299Z,10.43
2023-04-19T15:50:37.989Z,10.05
2023-04-19T15:53:08.327Z,11.30
2023-04-19T15:55:37.077Z,10.63
2023-04-19T15:58:06.950Z,13.43
2023-04-19T16:00:35.367Z,13.38
2023-04-19T16:03:04.419Z,11.63
2023-04-19T16:05:34.180Z,11.75
2023-04-19T16:08:04.125Z,11.05
2023-04-19T16:10:32.820Z,11.40
2023-04-19T16:13:02.590Z,10.38
2023-04-19T16:15:31.014Z,11.70
2023-04-19T16:17:59.484Z,11.93
2023-04-19T16:20:27.885Z,11.45
2023-04-19T16:22:58.939Z,10.07
2023-04-19T16:25:28.745Z,9.50
2023-04-19T16:27:57.304Z,8.88
2023-04-19T16:30:27.314Z,8.00
2023-04-19T16:32:57.462Z,7.40
2023-04-19T16:35:27.086Z,7.55
2023-04-19T16:37:57.902Z,8.40
2023-04-19T16:40:27.226Z,7.82
2023-04-19T16:42:55.713Z,8.10
2023-04-19T16:45:24.866Z,6.93
2023-04-19T16:47:53.753Z,7.72
2023-04-19T16:50:23.026Z,7.78
2023-04-19T16:52:51.395Z,7.55
2023-04-19T16:55:22.533Z,7.68
2023-04-19T16:57:51.548Z,7.82
2023-04-19T17:00:20.407Z,7.18
2023-04-19T17:02:49.258Z,8.23
2023-04-19T17:05:17.804Z,8.55
2023-04-19T17:07:47.198Z,7.55
2023-04-19T17:10:15.886Z,8.43
2023-04-19T17:12:46.398Z,7.93
2023-04-19T17:15:14.742Z,7.70
2023-04-19T17:17:44.261Z,9.80
2023-04-19T17:20:13.583Z,8.75
2023-04-19T17:22:42.998Z,8.45
2023-04-19T17:25:11.792Z,8.70
2023-04-19T17:27:40.099Z,7.70
2023-04-19T17:30:11.129Z,8.35
2023-04-19T17:32:39.661Z,9.05
2023-04-19T17:35:09.286Z,11.35
2023-04-19T17:37:37.838Z,11.07
2023-04-19T17:40:08.473Z,8.95
2023-04-19T17:42:36.807Z,9.48
2023-04-19T17:45:11.231Z,9.68
2023-04-19T17:47:41.836Z,16.50
2023-04-19T17:50:13.297Z,12.40
2023-04-19T17:52:41.633Z,13.07
2023-04-19T17:55:10.806Z,10.95
2023-04-19T17:57:40.120Z,9.70
2023-04-19T18:00:11.802Z,9.90
2023-04-19T18:02:42.014Z,10.00
2023-04-19T18:05:13.459Z,9.43
2023-04-19T18:07:41.902Z,8.85
2023-04-19T18:10:10.956Z,10.43
2023-04-19T18:12:39.380Z,10.45
2023-04-19T18:15:09.477Z,10.52
2023-04-19T18:17:38.253Z,10.80
2023-04-19T18:20:10.378Z,11.13
2023-04-19T18:22:40.464Z,11.10
2023-04-19T18:25:10.181Z,10.98
2023-04-19T18:27:38.655Z,10.80
2023-04-19T18:30:08.978Z,10.90
2023-04-19T18:32:37.756Z,10.90
2023-04-19T18:35:10.282Z,10.57
2023-04-19T18:37:39.393Z,9.50
2023-04-19T18:40:09.100Z,10.38
2023-04-19T18:42:38.401Z,10.98
2023-04-19T18:45:07.923Z,10.40
2023-04-19T18:47:37.215Z,13.95
2023-04-19T19:07:14.037Z,15.77
2023-04-19T19:23:03.881Z,11.88
2023-04-19T19:30:26.030Z,10.23
2023-04-19T19:32:54.417Z,21.05
2023-04-19T19:35:24.773Z,18.35
2023-04-19T19:37:55.379Z,13.77
2023-04-19T19:40:23.738Z,12.00
2023-04-19T19:42:52.104Z,11.40
2023-04-19T19:45:20.782Z,11.88
2023-04-19T19:47:50.456Z,11.73
2023-04-19T19:52:52.539Z,11.07
2023-04-19T19:55:22.962Z,10.32
2023-04-19T20:00:42.714Z,10.13
2023-04-19T20:03:13.460Z,9.80
2023-04-19T20:05:42.074Z,9.43
2023-04-19T20:08:12.717Z,9.60
2023-04-19T20:10:43.726Z,10.15
2023-04-19T20:13:13.239Z,9.88
2023-04-19T20:15:42.272Z,9.32
2023-04-19T20:18:10.732Z,9.30
2023-04-19T20:20:39.765Z,9.90
2023-04-19T20:23:08.099Z,10.10
2023-04-19T20:25:38.637Z,12.65
2023-04-19T20:28:09.350Z,13.45
2023-04-19T20:30:38.236Z,12.52
2023-04-19T20:33:06.644Z,12.90
2023-04-19T20:35:36.764Z,11.93
2023-04-19T20:38:07.709Z,10.85
2023-04-19T20:40:37.013Z,10.97
2023-04-19T20:43:06.826Z,10.57
2023-04-19T20:45:38.059Z,10.32
2023-04-19T20:48:08.596Z,10.70
2023-04-19T20:50:37.225Z,11.13
2023-04-19T20:53:06.207Z,11.07
2023-04-19T20:55:35.798Z,11.73
2023-04-19T20:58:04.189Z,13.05
2023-04-19T21:00:33.333Z,12.05
2023-04-19T21:03:03.331Z,11.57
2023-04-19T21:05:33.582Z,10.10
2023-04-19T21:08:01.979Z,12.63
2023-04-19T21:10:31.697Z,12.97
2023-04-19T21:13:00.085Z,10.90
2023-04-19T21:15:29.305Z,10.77
2023-04-19T21:17:58.203Z,11.55
2023-04-19T21:20:28.207Z,11.50
2023-04-19T21:22:57.120Z,12.53
2023-04-19T21:25:26.735Z,11.80
2023-04-19T21:27:55.057Z,11.20
2023-04-19T21:30:26.014Z,11.30
2023-04-19T21:32:54.435Z,12.05
2023-04-19T21:35:25.260Z,11.00
2023-04-19T22:13:06.811Z,12.03
2023-04-19T22:15:35.145Z,12.55
2023-04-19T22:18:05.509Z,11.60
2023-04-19T22:20:35.947Z,10.50
2023-04-19T22:23:04.991Z,11.00
2023-04-19T22:25:34.471Z,11.20
2023-04-19T22:28:02.855Z,12.07
2023-04-19T22:30:31.670Z,12.05
2023-04-19T22:33:00.934Z,11.43
2023-04-19T22:35:29.280Z,11.10
2023-04-19T22:38:00.502Z,10.93
2023-04-19T22:40:29.055Z,11.27
2023-04-19T22:42:58.239Z,11.23
2023-04-19T22:45:27.228Z,11.43
2023-04-19T22:47:56.842Z,11.63
2023-04-19T22:50:25.644Z,12.17
2023-04-19T22:52:54.395Z,8.13
2023-04-19T22:55:24.126Z,10.80
2023-04-19T22:57:52.511Z,12.40
2023-04-19T23:00:21.880Z,12.68
2023-04-19T23:02:50.420Z,10.90
2023-04-19T23:05:19.455Z,10.67
2023-04-19T23:07:49.642Z,10.07
2023-04-19T23:10:21.603Z,11.32
2023-04-19T23:12:51.343Z,10.03
2023-04-19T23:15:19.857Z,11.30
2023-04-19T23:17:50.626Z,11.45
2023-04-19T23:20:19.083Z,11.75
2023-04-19T23:22:48.218Z,11.37
2023-04-19T23:25:16.583Z,11.40
2023-04-19T23:27:48.280Z,11.83
2023-04-19T23:30:18.656Z,11.68
2023-04-19T23:32:47.835Z,11.53
2023-04-19T23:35:16.749Z,10.60
2023-04-19T23:37:45.095Z,11.13
2023-04-19T23:40:14.554Z,11.15
2023-04-19T23:42:42.916Z,11.77
2023-04-19T23:45:12.254Z,11.02
2023-04-19T23:47:42.093Z,10.83
2023-04-19T23:50:11.834Z,12.00
2023-04-19T23:52:40.999Z,11.23
2023-04-19T23:55:10.272Z,10.80
2023-04-19T23:57:39.978Z,11.55
